Time,TemperatureF,DewpointF,PressureIn,WindDirection,WindDirectionDegrees,WindSpeedMPH,WindSpeedGustMPH,Humidity,HourlyPrecipIn,Conditions,Clouds,dailyrainin,SolarRadiationWatts/m^2,SoftwareType,DateUTC
2013-07-30 00:00:00,60.0,53.0,30.05,WNW,289,1.0,-999.0,76,-99.99,,,-99.99,0.140000,,2013-07-30 06:00:00,
2013-07-30 00:53:00,60.0,53.0,30.05,WNW,289,1.0,-999.0,76,-99.99,,,-99.99,0.140000,,2013-07-30 06:53:00,
2013-07-30 02:00:00,59.0,52.0,30.05,West,275,3.0,-999.0,80,-99.99,,,-99.99,0.070000,,2013-07-30 08:00:00,
2013-07-30 03:00:00,58.0,52.0,30.05,West,273,2.0,-999.0,81,-99.99,,,-99.99,0.070000,,2013-07-30 09:00:00,
2013-07-30 04:00:00,58.0,53.0,30.05,West,270,2.0,-999.0,84,-99.99,,,-99.99,0.070000,,2013-07-30 10:00:00,
2013-07-30 06:00:00,56.0,54.0,30.06,NE,47,4.0,-999.0,92,-99.99,,,-99.99,0.940000,,2013-07-30 12:00:00,
2013-07-30 07:00:00,58.0,56.0,30.07,NE,40,9.0,-999.0,96,-99.99,,,-99.99,23.330000,,2013-07-30 13:00:00,
2013-07-30 08:00:00,59.0,57.0,30.11,NNE,25,12.0,-999.0,93,-99.99,,,-99.99,43.169998,,2013-07-30 14:00:00,
2013-07-30 09:00:00,63.0,51.0,30.09,NE,42,12.0,-999.0,65,-99.99,,,-99.99,201.000000,,2013-07-30 15:00:00,
2013-07-30 10:00:00,62.0,55.0,30.11,ENE,73,6.0,-999.0,78,-99.99,,,-99.99,94.099998,,2013-07-30 16:00:00,
2013-07-30 10:52:00,62.0,55.0,30.11,ENE,73,6.0,-999.0,78,-99.99,,,-99.99,94.099998,,2013-07-30 16:52:00,
2013-07-30 11:00:00,59.0,55.0,30.12,NNE,33,4.0,-999.0,86,-99.99,,,-99.99,95.500000,,2013-07-30 17:00:00,
2013-07-30 12:00:00,65.0,55.0,30.11,East,95,7.0,-999.0,70,-99.99,,,-99.99,418.200012,,2013-07-30 18:00:00,
2013-07-30 12:52:00,65.0,55.0,30.11,East,95,7.0,-999.0,70,-99.99,,,-99.99,418.200012,,2013-07-30 18:52:00,
2013-07-30 13:00:00,69.0,55.0,30.11,ESE,108,6.0,-999.0,62,-99.99,,,-99.99,376.799988,,2013-07-30 19:00:00,
2013-07-30 13:52:00,69.0,55.0,30.11,ESE,108,6.0,-999.0,62,-99.99,,,-99.99,376.799988,,2013-07-30 19:52:00,
2013-07-30 14:00:00,70.0,55.0,30.10,NE,53,5.0,-999.0,58,-99.99,,,-99.99,361.299988,,2013-07-30 20:00:00,
2013-07-30 14:52:00,70.0,55.0,30.10,NE,53,5.0,-999.0,58,-99.99,,,-99.99,361.299988,,2013-07-30 20:52:00,
2013-07-30 15:00:00,71.0,54.0,30.11,North,10,5.0,-999.0,54,-99.99,,,-99.99,469.000000,,2013-07-30 21:00:00,
2013-07-30 15:53:00,71.0,54.0,30.11,North,10,5.0,-999.0,54,-99.99,,,-99.99,469.000000,,2013-07-30 21:53:00,
2013-07-30 17:00:00,73.0,52.0,30.08,NNW,327,8.0,-999.0,47,-99.99,,,-99.99,465.899994,,2013-07-30 23:00:00,
2013-07-30 17:53:00,73.0,52.0,30.08,NNW,327,8.0,-999.0,47,-99.99,,,-99.99,465.899994,,2013-07-30 23:53:00,
2013-07-30 18:00:00,73.0,53.0,30.08,NNW,332,11.0,-999.0,49,-99.99,,,-99.99,365.600006,,2013-07-31 00:00:00,
2013-07-30 19:00:00,72.0,49.0,30.09,NNW,335,10.0,-999.0,45,-99.99,,,-99.99,216.199997,,2013-07-31 01:00:00,
2013-07-30 20:00:00,68.0,54.0,30.10,NW,326,7.0,-999.0,62,-99.99,,,-99.99,61.320000,,2013-07-31 02:00:00,
2013-07-30 20:52:00,68.0,54.0,30.10,NW,326,7.0,-999.0,62,-99.99,,,-99.99,61.320000,,2013-07-31 02:52:00,
2013-07-30 21:00:00,63.0,55.0,30.13,WNW,285,4.0,-999.0,73,-99.99,,,-99.99,11.450000,,2013-07-31 03:00:00,
2013-07-30 22:00:00,63.0,53.0,30.15,West,261,5.0,-999.0,71,-99.99,,,-99.99,0.190000,,2013-07-31 04:00:00,
2013-07-30 23:00:00,60.0,53.0,30.15,West,269,6.0,-999.0,78,-99.99,,,-99.99,0.170000,,2013-07-31 05:00:00,